Time;durP1;ratioP1;P1;durP2;ratioP2;P2;SDS_P1;SDS_P2;PMS_P1;PMS_P2;Temp;Humidity;BMP_temperature;BMP_pressure;BME280_temperature;BME280_humidity;BME280_pressure;Samples;Min_cycle;Max_cycle;Signal;HPM_P1;HPM_P2
2021/11/21 00:00:40;;;;;;;89.47;9.33;;;;;;;1.32;100.00;95751.97;5030288;28;24419;-74
2021/11/21 00:03:06;;;;;;;59.15;6.72;;;;;;;1.32;100.00;95751.97;5030275;28;24427;-74
2021/11/21 00:05:33;;;;;;;70.47;8.02;;;;;;;1.37;100.00;95751.84;5029769;28;24973;-74
2021/11/21 00:07:59;;;;;;;31.90;4.10;;;;;;;1.49;100.00;95745.59;5030051;28;24423;-74
2021/11/21 00:10:33;;;;;;;67.72;3.83;;;;;;;1.64;100.00;95738.34;5030097;28;24956;-74
2021/11/21 00:12:59;;;;;;;45.88;2.92;;;;;;;1.58;100.00;95730.84;5030231;28;24777;-74
2021/11/21 00:15:26;;;;;;;144.52;6.40;;;;;;;1.24;100.00;95733.50;5029760;28;24447;-73
2021/11/21 00:17:52;;;;;;;125.82;5.80;;;;;;;1.09;100.00;95728.81;5030128;28;24435;-74
2021/11/21 00:20:19;;;;;;;124.60;4.75;;;;;;;1.05;100.00;95729.75;5030105;28;24422;-74
2021/11/21 00:22:46;;;;;;;132.63;5.78;;;;;;;1.01;100.00;95725.63;5030144;28;24427;-74
2021/11/21 00:25:13;;;;;;;145.38;6.72;;;;;;;0.94;100.00;95719.84;5029949;28;24423;-74
2021/11/21 00:27:41;;;;;;;76.85;4.40;;;;;;;1.00;100.00;95708.63;5023066;28;24448;-74
2021/11/21 00:30:08;;;;;;;131.90;5.43;;;;;;;1.21;100.00;95716.53;5010140;28;24435;-74
2021/11/21 00:32:34;;;;;;;81.80;4.70;;;;;;;1.32;100.00;95700.13;5010313;28;24431;-74
2021/11/21 00:35:01;;;;;;;5.18;2.20;;;;;;;1.38;100.00;95697.41;5009579;28;24822;-74
2021/11/21 00:37:28;;;;;;;40.10;3.95;;;;;;;1.31;100.00;95686.53;5010307;28;24463;-74
2021/11/21 00:39:55;;;;;;;106.78;5.72;;;;;;;1.14;100.00;95686.13;5010185;28;24420;-74
2021/11/21 00:42:21;;;;;;;119.75;6.10;;;;;;;1.25;100.00;95683.31;5010216;28;24822;-74
2021/11/21 00:44:49;;;;;;;109.40;4.50;;;;;;;1.24;100.00;95691.84;5010025;28;24479;-74
2021/11/21 00:47:16;;;;;;;143.82;6.30;;;;;;;1.00;100.00;95693.31;5009875;28;24427;-74
2021/11/21 00:49:43;;;;;;;136.05;5.85;;;;;;;0.93;100.00;95677.38;5009995;28;24424;-74
2021/11/21 00:52:10;;;;;;;132.80;6.25;;;;;;;0.93;100.00;95677.38;5010163;28;24725;-74
2021/11/21 00:54:50;;;;;;;37.88;6.30;;;;;;;1.09;100.00;95683.72;5010866;28;25008;-74
2021/11/21 00:57:17;;;;;;;190.30;7.67;;;;;;;0.90;100.00;95687.66;5013252;28;24440;-74
2021/11/21 00:59:44;;;;;;;163.03;6.20;;;;;;;0.81;100.00;95693.81;5013505;28;24416;-74
2021/11/21 01:02:12;;;;;;;46.97;2.47;;;;;;;0.85;100.00;95692.00;5013708;28;24436;-73
2021/11/21 01:04:41;;;;;;;154.85;5.55;;;;;;;0.90;100.00;95677.44;5013402;28;24919;-73
2021/11/21 01:07:08;;;;;;;72.83;3.33;;;;;;;0.88;100.00;95679.19;5013112;28;24425;-74
2021/11/21 01:09:35;;;;;;;157.40;6.38;;;;;;;0.81;100.00;95675.13;5013437;28;24421;-74
2021/11/21 01:12:02;;;;;;;39.17;2.70;;;;;;;1.05;100.00;95679.59;5013231;28;24551;-74
2021/11/21 01:14:30;;;;;;;195.70;6.40;;;;;;;0.93;100.00;95672.28;5013011;28;24432;-74
2021/11/21 01:16:57;;;;;;;157.65;5.40;;;;;;;0.85;100.00;95672.44;5013005;28;24830;-74
2021/11/21 01:19:25;;;;;;;123.38;5.43;;;;;;;0.64;100.00;95666.22;5013322;28;24432;-74
2021/11/21 01:21:52;;;;;;;208.52;7.13;;;;;;;0.64;100.00;95660.28;5013205;28;24423;-74
2021/11/21 01:24:19;;;;;;;143.98;5.38;;;;;;;0.55;100.00;95658.78;5013119;28;24420;-74
2021/11/21 01:26:45;;;;;;;38.63;2.17;;;;;;;0.68;100.00;95659.31;5012577;28;24427;-74
2021/11/21 01:29:12;;;;;;;56.30;2.80;;;;;;;1.12;100.00;95660.69;5012624;28;24841;-74
2021/11/21 01:31:38;;;;;;;61.42;2.65;;;;;;;1.08;100.00;95659.09;5013072;28;24424;-74
2021/11/21 01:34:05;;;;;;;54.73;2.93;;;;;;;1.13;100.00;95648.78;5013136;28;24492;-74
2021/11/21 01:36:32;;;;;;;45.38;2.42;;;;;;;1.17;100.00;95638.44;5012568;28;24452;-74
2021/11/21 01:38:59;;;;;;;21.52;1.80;;;;;;;1.17;100.00;95643.53;5012909;28;24419;-74
2021/11/21 01:41:25;;;;;;;28.50;2.25;;;;;;;1.29;100.00;95639.78;5012692;28;24985;-74
2021/11/21 01:43:52;;;;;;;128.68;3.80;;;;;;;1.19;100.00;95643.50;5012636;28;24694;-74
2021/11/21 01:46:18;;;;;;;39.13;2.33;;;;;;;1.23;100.00;95646.81;5012523;28;24425;-74
2021/11/21 01:48:45;;;;;;;88.60;3.80;;;;;;;0.91;100.00;95644.25;5012832;28;24943;-74
2021/11/21 01:51:12;;;;;;;55.05;2.15;;;;;;;1.01;100.00;95652.50;5012690;28;24447;-74
2021/11/21 01:53:40;;;;;;;65.95;2.50;;;;;;;0.90;100.00;95647.69;5012421;28;25057;-73
2021/11/21 01:56:07;;;;;;;29.33;1.90;;;;;;;1.26;100.00;95642.47;5012023;28;25012;-74
2021/11/21 01:58:34;;;;;;;65.78;2.78;;;;;;;1.27;100.00;95644.13;5012386;28;24425;-74
2021/11/21 02:01:01;;;;;;;29.23;1.95;;;;;;;1.64;100.00;95640.50;5012464;28;24488;-74
2021/11/21 02:03:27;;;;;;;34.17;1.90;;;;;;;1.44;100.00;95649.56;5012550;28;24822;-74
2021/11/21 02:05:54;;;;;;;19.00;1.38;;;;;;;1.43;100.00;95639.41;5011289;28;24483;-74
2021/11/21 02:08:21;;;;;;;14.07;1.23;;;;;;;1.30;100.00;95636.38;5012468;28;24427;-74
2021/11/21 02:10:49;;;;;;;11.30;1.33;;;;;;;1.17;100.00;95635.03;5012104;28;24794;-74
2021/11/21 02:13:15;;;;;;;16.55;1.30;;;;;;;0.97;100.00;95635.59;5012306;28;24440;-74
2021/11/21 02:15:44;;;;;;;15.48;1.33;;;;;;;1.04;100.00;95626.91;5012102;28;24452;-74
2021/11/21 02:18:13;;;;;;;11.30;1.40;;;;;;;1.12;100.00;95631.81;5012220;28;24527;-74
2021/11/21 02:20:52;;;;;;;4.22;1.00;;;;;;;1.33;100.00;95620.97;5012199;28;24424;-74
2021/11/21 02:23:20;;;;;;;16.10;1.20;;;;;;;1.23;100.00;95627.22;5012063;28;24798;-74
2021/11/21 02:25:46;;;;;;;10.48;1.25;;;;;;;1.19;100.00;95628.19;5011575;28;24424;-74
2021/11/21 02:28:13;;;;;;;4.50;1.13;;;;;;;1.51;100.00;95624.69;5012022;28;24487;-74
2021/11/21 02:30:40;;;;;;;4.13;1.47;;;;;;;1.70;100.00;95614.75;5012143;28;24669;-74
2021/11/21 02:33:10;;;;;;;3.55;1.10;;;;;;;1.40;100.00;95612.25;5012105;28;24428;-74
2021/11/21 02:35:39;;;;;;;2.88;1.27;;;;;;;1.16;100.00;95610.44;5011984;28;24444;-74
2021/11/21 02:38:07;;;;;;;5.40;1.30;;;;;;;1.19;100.00;95600.97;5011739;28;24460;-74
2021/11/21 02:40:34;;;;;;;10.60;1.15;;;;;;;1.19;100.00;95597.59;5011866;28;24448;-74
2021/11/21 02:43:00;;;;;;;9.25;1.30;;;;;;;1.14;100.00;95592.59;5011628;28;24435;-74
2021/11/21 02:45:27;;;;;;;3.58;1.20;;;;;;;1.12;100.00;95588.44;5011366;28;24420;-74
2021/11/21 02:47:53;;;;;;;7.35;1.40;;;;;;;1.05;100.00;95587.78;5011650;28;24984;-74
2021/11/21 02:50:23;;;;;;;12.68;1.40;;;;;;;1.02;100.00;95577.66;5011496;28;24416;-74
2021/11/21 02:52:50;;;;;;;11.00;1.33;;;;;;;1.05;100.00;95575.03;5011406;28;24775;-74
2021/11/21 02:55:19;;;;;;;2.33;1.30;;;;;;;1.09;100.00;95570.66;5011253;28;24444;-74
2021/11/21 02:57:45;;;;;;;6.88;1.30;;;;;;;1.06;100.00;95566.47;5011870;28;24417;-74
2021/11/21 03:00:16;;;;;;;13.65;1.40;;;;;;;1.09;100.00;95566.41;5011767;28;24435;-74
2021/11/21 03:02:45;;;;;;;12.07;1.67;;;;;;;1.14;100.00;95566.25;5011651;28;24433;-74
2021/11/21 03:05:13;;;;;;;5.25;1.45;;;;;;;1.14;100.00;95566.25;5011138;28;24448;-74
2021/11/21 03:07:39;;;;;;;11.52;1.70;;;;;;;1.11;100.00;95556.13;5011525;28;24435;-74
2021/11/21 03:10:07;;;;;;;12.50;1.80;;;;;;;1.07;100.00;95552.00;5011708;28;24839;-74
2021/11/21 03:12:35;;;;;;;14.48;1.80;;;;;;;1.06;100.00;95556.28;5011557;28;24420;-74
2021/11/21 03:15:03;;;;;;;5.60;1.58;;;;;;;1.10;100.00;95552.75;5011122;28;24415;-74
2021/11/21 03:17:30;;;;;;;3.63;1.60;;;;;;;1.12;100.00;95545.91;5011136;28;24424;-74
2021/11/21 03:19:56;;;;;;;4.25;1.75;;;;;;;1.17;100.00;95545.78;5011253;28;24488;-74
2021/11/21 03:22:23;;;;;;;18.27;1.85;;;;;;;1.10;100.00;95541.72;5011259;28;24423;-74
2021/11/21 03:24:49;;;;;;;4.43;1.67;;;;;;;0.97;100.00;95531.06;5011120;28;24435;-74
2021/11/21 03:27:16;;;;;;;8.15;1.42;;;;;;;1.09;100.00;95528.13;5011032;28;24487;-74
2021/11/21 03:29:44;;;;;;;15.10;1.80;;;;;;;1.12;100.00;95535.72;5011144;28;24973;-74
2021/11/21 03:32:11;;;;;;;12.23;2.38;;;;;;;0.98;100.00;95521.69;5011011;28;24985;-74
2021/11/21 03:34:38;;;;;;;13.57;2.13;;;;;;;0.63;100.00;95536.25;5011219;28;24517;-74
2021/11/21 03:37:06;;;;;;;17.70;2.67;;;;;;;0.44;100.00;95534.22;5010609;28;24459;-74
2021/11/21 03:39:32;;;;;;;6.60;2.00;;;;;;;0.37;100.00;95534.41;5010963;28;24421;-74
2021/11/21 03:41:59;;;;;;;5.28;2.10;;;;;;;0.44;100.00;95530.84;5011411;28;24423;-75
2021/11/21 03:44:25;;;;;;;4.33;1.63;;;;;;;0.47;100.00;95531.59;5010837;28;24489;-75
2021/11/21 03:46:53;;;;;;;28.40;2.75;;;;;;;0.61;100.00;95532.94;5010308;28;25036;-75
2021/11/21 03:49:20;;;;;;;12.35;1.92;;;;;;;0.49;100.00;95529.00;5010875;28;24810;-74
2021/11/21 03:51:46;;;;;;;4.95;2.30;;;;;;;0.41;100.00;95530.94;5010958;28;24436;-74
2021/11/21 03:54:13;;;;;;;11.20;2.17;;;;;;;0.32;100.00;95529.47;5010790;28;24420;-74
2021/11/21 03:56:40;;;;;;;129.18;4.82;;;;;;;0.12;100.00;95518.97;5010257;28;24475;-74
2021/11/21 03:59:07;;;;;;;23.07;1.70;;;;;;;0.27;100.00;95521.09;5010506;28;24498;-74
2021/11/21 04:01:34;;;;;;;56.58;2.55;;;;;;;0.30;100.00;95521.03;5010623;28;24801;-74
2021/11/21 04:04:05;;;;;;;17.25;1.80;;;;;;;0.32;100.00;95513.34;5010602;28;24527;-74
2021/11/21 04:06:32;;;;;;;18.90;1.57;;;;;;;0.43;100.00;95509.63;5010139;28;25049;-74
2021/11/21 04:08:58;;;;;;;3.25;1.42;;;;;;;0.58;100.00;95513.47;5010708;28;24782;-74
2021/11/21 04:11:25;;;;;;;6.65;1.50;;;;;;;0.80;100.00;95512.84;5010554;28;24818;-74
2021/11/21 04:13:51;;;;;;;1.90;1.50;;;;;;;0.84;100.00;95512.72;5010403;28;24424;-74
2021/11/21 04:16:18;;;;;;;7.40;1.45;;;;;;;0.81;100.00;95505.16;5010201;28;24459;-74
2021/11/21 04:18:44;;;;;;;13.97;1.90;;;;;;;0.80;100.00;95502.66;5010310;28;24950;-74
2021/11/21 04:21:12;;;;;;;140.15;5.95;;;;;;;0.86;100.00;95488.03;5010288;28;24977;-74
2021/11/21 04:23:38;;;;;;;96.38;4.72;;;;;;;0.88;100.00;95481.16;5010404;28;24447;-74
2021/11/21 04:26:05;;;;;;;44.75;2.40;;;;;;;0.85;100.00;95480.41;5009961;28;25036;-74
2021/11/21 04:28:31;;;;;;;167.27;6.78;;;;;;;0.66;100.00;95478.38;5010114;28;24428;-74
2021/11/21 04:30:58;;;;;;;185.40;7.17;;;;;;;0.40;100.00;95473.19;5013888;28;24518;-74
2021/11/21 04:33:25;;;;;;;70.22;3.70;;;;;;;0.41;100.00;95470.63;5014140;28;24420;-75
2021/11/21 04:35:53;;;;;;;49.42;2.67;;;;;;;0.55;100.00;95472.75;5013652;28;24445;-74
2021/11/21 04:38:23;;;;;;;99.00;3.97;;;;;;;0.60;100.00;95470.09;5013826;28;24977;-74
2021/11/21 04:40:51;;;;;;;112.97;4.97;;;;;;;0.55;100.00;95454.94;5013189;28;24464;-74
2021/11/21 04:43:18;;;;;;;104.82;4.55;;;;;;;0.61;100.00;95453.94;5013720;28;24506;-74
2021/11/21 04:45:44;;;;;;;161.57;5.22;;;;;;;0.50;100.00;95451.69;5013588;28;24424;-74
2021/11/21 04:48:11;;;;;;;126.05;4.63;;;;;;;0.54;100.00;95452.44;5013891;28;25064;-74
2021/11/21 04:50:38;;;;;;;271.57;9.53;;;;;;;0.29;100.00;95450.56;5013480;28;24435;-74
2021/11/21 04:53:05;;;;;;;247.68;9.65;;;;;;;0.14;100.00;95448.44;5013510;28;24986;-74
2021/11/21 04:55:34;;;;;;;217.93;6.72;;;;;;;0.09;100.00;95442.66;5012884;28;24474;-74
2021/11/21 04:58:01;;;;;;;83.63;3.42;;;;;;;0.29;100.00;95434.47;5013686;28;24428;-74
2021/11/21 05:00:29;;;;;;;50.67;2.53;;;;;;;0.45;100.00;95430.63;5013683;28;24510;-75
2021/11/21 05:02:56;;;;;;;86.72;4.00;;;;;;;0.45;100.00;95439.09;5010619;28;25001;-74
2021/11/21 05:05:24;;;;;;;116.97;4.72;;;;;;;0.30;100.00;95441.22;5012907;28;24445;-74
2021/11/21 05:07:51;;;;;;;143.57;4.78;;;;;;;0.31;100.00;95437.81;5013222;28;24443;-75
2021/11/21 05:10:19;;;;;;;239.85;8.82;;;;;;;0.11;100.00;95438.34;5013357;28;24533;-74
2021/11/21 05:12:49;;;;;;;139.63;4.35;;;;;;;0.20;100.00;95441.47;5013374;28;24432;-74
2021/11/21 05:15:19;;;;;;;55.10;2.47;;;;;;;0.46;100.00;95448.38;5013030;28;24432;-74
2021/11/21 05:17:48;;;;;;;95.40;4.10;;;;;;;0.52;100.00;95446.53;5013196;28;24460;-74
2021/11/21 05:20:15;;;;;;;238.35;7.47;;;;;;;0.31;100.00;95448.00;5012934;28;24441;-74
2021/11/21 05:22:42;;;;;;;180.07;5.97;;;;;;;0.36;100.00;95443.59;5012978;28;24958;-74
2021/11/21 05:25:09;;;;;;;58.35;2.58;;;;;;;0.47;100.00;95446.66;5012787;28;24966;-74
2021/11/21 05:27:35;;;;;;;210.20;6.60;;;;;;;0.31;100.00;95448.00;5013233;28;24432;-74
2021/11/21 05:30:04;;;;;;;199.77;7.03;;;;;;;0.11;100.00;95444.28;5012943;28;24412;-74
2021/11/21 05:32:30;;;;;;;16.80;1.33;;;;;;;0.20;100.00;95435.56;5013027;28;24416;-74
2021/11/21 05:34:57;;;;;;;159.30;4.65;;;;;;;0.02;100.00;95438.59;5012436;28;24428;-74
2021/11/21 05:37:23;;;;;;;122.50;4.45;;;;;;;-0.14;100.00;95431.38;5012940;28;24508;-74
2021/11/21 05:39:50;;;;;;;58.57;2.97;;;;;;;0.01;100.00;95434.41;5013032;28;24416;-74
2021/11/21 05:42:16;;;;;;;46.83;1.55;;;;;;;0.19;100.00;95434.72;5011609;28;24487;-74
2021/11/21 05:44:43;;;;;;;69.40;2.42;;;;;;;-0.16;100.00;95435.66;5012780;28;24435;-74
2021/11/21 05:47:11;;;;;;;40.33;1.60;;;;;;;-0.33;100.00;95440.38;5012391;28;24478;-74
2021/11/21 05:49:37;;;;;;;50.47;1.80;;;;;;;-0.36;100.00;95430.28;5012489;28;24451;-74
2021/11/21 05:52:04;;;;;;;70.28;2.38;;;;;;;-0.36;100.00;95425.19;5012766;28;24459;-74
2021/11/21 05:54:30;;;;;;;36.10;1.30;;;;;;;-0.17;100.00;95428.91;5012745;28;24432;-74
2021/11/21 05:56:57;;;;;;;59.40;2.67;;;;;;;-0.17;100.00;95426.38;5012248;28;24460;-74
2021/11/21 05:59:23;;;;;;;49.90;1.97;;;;;;;-0.36;100.00;95426.00;5012579;28;24494;-74
2021/11/21 06:01:50;;;;;;;26.55;1.80;;;;;;;-0.26;100.00;95427.44;5012497;28;24432;-74
2021/11/21 06:04:18;;;;;;;12.38;1.52;;;;;;;-0.25;100.00;95418.09;5012263;28;24423;-74
2021/11/21 06:06:44;;;;;;;10.00;1.20;;;;;;;-0.08;100.00;95427.81;5012250;28;24429;-74
2021/11/21 06:09:10;;;;;;;6.50;1.03;;;;;;;0.11;100.00;95416.28;5012482;28;24428;-74
2021/11/21 06:11:37;;;;;;;3.88;1.17;;;;;;;0.20;100.00;95421.09;5012337;28;24423;-74
2021/11/21 06:14:03;;;;;;;10.95;1.23;;;;;;;0.27;100.00;95421.78;5012344;28;24439;-74
2021/11/21 06:16:30;;;;;;;28.83;2.03;;;;;;;0.03;100.00;95419.91;5011589;28;24514;-74
2021/11/21 06:18:56;;;;;;;61.67;2.78;;;;;;;-0.05;100.00;95425.19;5011996;28;24432;-74
2021/11/21 06:21:24;;;;;;;41.55;1.73;;;;;;;-0.01;100.00;95414.88;5012420;28;24452;-74
2021/11/21 06:23:50;;;;;;;10.40;1.37;;;;;;;0.05;100.00;95423.25;5011953;28;25084;-75
2021/11/21 06:26:19;;;;;;;87.25;3.80;;;;;;;-0.09;100.00;95428.69;5011731;28;24420;-74
2021/11/21 06:28:45;;;;;;;37.53;2.50;;;;;;;0.04;100.00;95429.19;5011763;28;25023;-74
2021/11/21 06:31:12;;;;;;;29.27;2.25;;;;;;;0.06;100.00;95418.09;5011701;28;24427;-74
2021/11/21 06:33:38;;;;;;;13.48;1.75;;;;;;;0.22;100.00;95428.69;5011965;28;24494;-74
2021/11/21 06:36:06;;;;;;;15.55;2.20;;;;;;;0.24;100.00;95419.31;5011190;28;24424;-75
2021/11/21 06:38:34;;;;;;;14.07;2.35;;;;;;;0.29;100.00;95411.53;5011802;28;24519;-74
2021/11/21 06:41:01;;;;;;;28.60;3.25;;;;;;;0.45;100.00;95411.06;5011528;28;24428;-74
2021/11/21 06:43:27;;;;;;;7.32;2.67;;;;;;;0.73;100.00;95418.72;5011454;28;24930;-74
2021/11/21 06:45:54;;;;;;;15.57;2.83;;;;;;;0.79;100.00;95409.22;5011097;28;24958;-74
2021/11/21 06:48:22;;;;;;;11.68;3.35;;;;;;;0.81;100.00;95418.47;5011370;28;24562;-74
2021/11/21 06:50:51;;;;;;;7.95;3.63;;;;;;;0.81;100.00;95417.66;5008589;28;24499;-74
2021/11/21 06:53:18;;;;;;;16.50;4.28;;;;;;;0.85;100.00;95419.22;5010806;28;24479;-74
2021/11/21 06:55:46;;;;;;;33.45;5.57;;;;;;;0.66;100.00;95427.41;5003175;28;25062;-74
2021/11/21 06:58:12;;;;;;;19.58;4.80;;;;;;;0.63;100.00;95429.22;4991671;28;25005;-73
2021/11/21 07:00:39;;;;;;;42.55;4.57;;;;;;;0.57;100.00;95430.25;4991723;28;24439;-73
2021/11/21 07:03:06;;;;;;;51.97;4.80;;;;;;;0.62;100.00;95433.47;4991849;28;24416;-74
2021/11/21 07:05:33;;;;;;;53.57;5.90;;;;;;;0.77;100.00;95434.75;4991335;28;24436;-74
2021/11/21 07:08:00;;;;;;;55.33;6.68;;;;;;;0.62;100.00;95433.47;4999839;28;24527;-74
2021/11/21 07:10:27;;;;;;;41.17;6.00;;;;;;;0.70;100.00;95444.31;5011027;28;24424;-74
2021/11/21 07:12:54;;;;;;;41.95;6.10;;;;;;;0.68;100.00;95438.41;5011107;28;24515;-74
2021/11/21 07:15:21;;;;;;;45.03;5.40;;;;;;;0.51;100.00;95434.69;5010849;28;24450;-74
2021/11/21 07:17:49;;;;;;;55.78;5.53;;;;;;;0.49;100.00;95442.38;5011002;28;24502;-74
2021/11/21 07:20:16;;;;;;;36.10;5.72;;;;;;;0.52;100.00;95439.75;5011095;28;24496;-74
2021/11/21 07:22:43;;;;;;;56.00;5.97;;;;;;;0.63;100.00;95435.19;5011024;28;24451;-74
2021/11/21 07:25:10;;;;;;;32.80;5.93;;;;;;;0.63;100.00;95441.97;5010674;28;24478;-74
2021/11/21 07:27:36;;;;;;;52.25;6.13;;;;;;;0.64;100.00;95441.94;5010748;28;24428;-74
2021/11/21 07:30:05;;;;;;;47.60;6.50;;;;;;;0.59;100.00;95442.94;5010838;28;24427;-74
2021/11/21 07:32:31;;;;;;;55.22;6.95;;;;;;;0.48;100.00;95449.19;5010906;28;24435;-74
2021/11/21 07:34:58;;;;;;;45.85;8.35;;;;;;;0.55;100.00;95447.28;5010548;28;24451;-74
2021/11/21 07:37:24;;;;;;;38.50;9.90;;;;;;;0.48;100.00;95455.97;5010260;28;25047;-75
2021/11/21 07:39:51;;;;;;;23.83;7.67;;;;;;;0.46;100.00;95448.38;5007656;28;24428;-74
2021/11/21 07:42:18;;;;;;;26.52;8.13;;;;;;;0.59;100.00;95446.31;5010324;28;24439;-74
2021/11/21 07:44:44;;;;;;;10.48;7.72;;;;;;;0.71;100.00;95453.63;5010833;28;24958;-74
2021/11/21 07:47:12;;;;;;;29.23;8.32;;;;;;;0.68;100.00;95446.06;5010445;28;24428;-74
2021/11/21 07:49:38;;;;;;;11.10;8.02;;;;;;;0.77;100.00;95446.66;5010757;28;24425;-74
2021/11/21 07:52:05;;;;;;;17.17;8.55;;;;;;;0.86;100.00;95439.59;5010735;28;24464;-74
2021/11/21 07:54:32;;;;;;;13.63;8.07;;;;;;;0.79;100.00;95435.56;5010471;28;25024;-74
2021/11/21 07:56:59;;;;;;;11.82;7.85;;;;;;;0.94;100.00;95439.34;5010396;28;24552;-74
2021/11/21 07:59:26;;;;;;;10.00;8.13;;;;;;;1.22;100.00;95436.75;5004789;28;25064;-74
2021/11/21 08:01:52;;;;;;;9.63;7.88;;;;;;;1.55;100.00;95432.28;5010833;28;24433;-74
2021/11/21 08:04:20;;;;;;;8.82;7.95;;;;;;;1.75;100.00;95429.09;5011933;28;24447;-74
2021/11/21 08:06:47;;;;;;;9.07;8.20;;;;;;;1.56;100.00;95435.66;5014163;28;24415;-74
2021/11/21 08:09:13;;;;;;;8.45;7.55;;;;;;;1.51;100.00;95429.91;5014533;28;24435;-74
2021/11/21 08:11:40;;;;;;;8.45;7.65;;;;;;;1.54;100.00;95432.34;5014493;28;24974;-74
2021/11/21 08:14:07;;;;;;;10.20;8.90;;;;;;;1.33;100.00;95442.34;5014690;28;25131;-74
2021/11/21 08:16:33;;;;;;;9.18;8.27;;;;;;;1.43;100.00;95443.75;5014400;28;24420;-71
2021/11/21 08:19:00;;;;;;;11.07;8.45;;;;;;;1.48;100.00;95442.75;5014867;28;24475;-74
2021/11/21 08:21:28;;;;;;;9.85;7.93;;;;;;;1.71;100.00;95445.41;5015386;28;24505;-74
2021/11/21 08:23:54;;;;;;;10.93;8.65;;;;;;;1.57;100.00;95440.75;5014259;28;24821;-74
2021/11/21 08:26:20;;;;;;;11.20;8.27;;;;;;;1.48;100.00;95440.19;5013995;28;24432;-74
2021/11/21 08:28:47;;;;;;;10.43;8.60;;;;;;;1.48;100.00;95435.09;5014304;28;24478;-74
2021/11/21 08:31:13;;;;;;;10.77;8.98;;;;;;;1.56;100.00;95439.09;5014486;28;24412;-74
2021/11/21 08:33:40;;;;;;;9.95;8.95;;;;;;;1.50;100.00;95439.28;5014107;28;24420;-74
2021/11/21 08:36:07;;;;;;;9.90;8.38;;;;;;;1.60;100.00;95439.81;5013594;28;24424;-74
2021/11/21 08:38:35;;;;;;;11.13;9.07;;;;;;;1.72;100.00;95444.50;5013824;28;24457;-74
2021/11/21 08:41:02;;;;;;;12.77;9.60;;;;;;;1.67;100.00;95441.28;5014052;28;24431;-74
2021/11/21 08:43:29;;;;;;;10.45;9.38;;;;;;;1.74;100.00;95440.16;5013744;28;24974;-74
2021/11/21 08:45:55;;;;;;;13.00;8.93;;;;;;;1.75;100.00;95446.13;5013505;28;24420;-74
2021/11/21 08:48:21;;;;;;;9.60;8.70;;;;;;;1.81;100.00;95443.34;5013863;28;24787;-74
2021/11/21 08:50:49;;;;;;;9.97;8.80;;;;;;;1.75;100.00;95454.63;5013707;28;24496;-74
2021/11/21 08:53:15;;;;;;;10.57;8.50;;;;;;;1.92;100.00;95447.22;5013574;28;24775;-74
2021/11/21 08:55:43;;;;;;;9.73;8.13;;;;;;;2.20;100.00;95448.00;5013497;28;24883;-74
2021/11/21 08:58:09;;;;;;;11.68;8.40;;;;;;;2.09;100.00;95454.31;5013592;28;24452;-74
2021/11/21 09:00:36;;;;;;;9.65;8.00;;;;;;;1.89;100.00;95455.00;5013547;28;24427;-74
2021/11/21 09:03:03;;;;;;;13.38;8.40;;;;;;;1.79;100.00;95448.53;5013865;28;24428;-74
2021/11/21 09:05:29;;;;;;;9.43;8.38;;;;;;;1.78;100.00;95448.56;5012910;28;24498;-74
2021/11/21 09:07:56;;;;;;;9.18;8.27;;;;;;;1.78;100.00;95451.13;5013610;28;24416;-74
2021/11/21 09:10:23;;;;;;;10.23;9.20;;;;;;;1.85;100.00;95450.03;5013510;28;24425;-74
2021/11/21 09:12:51;;;;;;;9.30;8.40;;;;;;;1.66;100.00;95453.19;5013413;28;24417;-74
2021/11/21 09:15:22;;;;;;;9.35;8.15;;;;;;;1.70;100.00;95454.75;5012805;28;24523;-74
2021/11/21 09:17:53;;;;;;;9.85;7.07;;;;;;;1.66;100.00;95455.75;5013161;28;24437;-74
2021/11/21 09:20:20;;;;;;;7.95;7.25;;;;;;;1.64;100.00;95454.97;5013120;28;24431;-73
2021/11/21 09:22:48;;;;;;;10.93;7.35;;;;;;;1.61;100.00;95452.53;5013273;28;24431;-74
2021/11/21 09:25:15;;;;;;;9.63;7.40;;;;;;;1.71;100.00;95455.63;5013189;28;24463;-74
2021/11/21 09:27:41;;;;;;;8.13;6.90;;;;;;;1.94;100.00;95454.84;5013031;28;24429;-74
2021/11/21 09:30:11;;;;;;;8.55;7.40;;;;;;;2.25;100.00;95443.53;5012820;28;24428;-74
2021/11/21 09:32:39;;;;;;;8.13;7.25;;;;;;;2.34;100.00;95441.50;5012761;28;24435;-74
2021/11/21 09:35:08;;;;;;;7.60;6.80;;;;;;;2.30;100.00;95441.66;5012693;28;24817;-74
2021/11/21 09:37:35;;;;;;;7.97;6.90;;;;;;;2.08;100.00;95439.88;5012921;28;24456;-74
2021/11/21 09:40:01;;;;;;;8.25;7.45;;;;;;;2.09;100.00;95441.53;5009329;28;24439;-74
2021/11/21 09:42:28;;;;;;;7.30;6.57;;;;;;;2.29;100.00;95430.59;5013007;28;24795;-74
2021/11/21 09:44:54;;;;;;;8.48;7.03;;;;;;;2.48;100.00;95425.66;5012267;28;24437;-74
2021/11/21 09:47:22;;;;;;;7.53;6.72;;;;;;;2.55;100.00;95428.81;5013007;28;24436;-74
2021/11/21 09:49:49;;;;;;;7.80;6.97;;;;;;;2.58;100.00;95427.00;5012798;28;24826;-74
2021/11/21 09:52:16;;;;;;;7.95;7.13;;;;;;;2.56;100.00;95433.91;5012564;28;24424;-74
2021/11/21 09:54:43;;;;;;;7.65;6.85;;;;;;;2.30;100.00;95433.97;5012494;28;24420;-74
2021/11/21 09:57:10;;;;;;;7.95;7.15;;;;;;;2.08;100.00;95427.09;5012128;28;24511;-74
2021/11/21 09:59:51;;;;;;;11.23;6.88;;;;;;;2.02;100.00;95422.19;5012207;28;24423;-74
2021/11/21 10:02:19;;;;;;;8.57;7.68;;;;;;;2.02;100.00;95416.25;5012337;28;25012;-74
2021/11/21 10:04:47;;;;;;;8.63;7.72;;;;;;;2.14;100.00;95426.03;5012291;28;24523;-74
2021/11/21 10:07:22;;;;;;;8.38;6.90;;;;;;;2.26;100.00;95419.66;5009255;28;24452;-74
2021/11/21 10:09:49;;;;;;;11.60;7.35;;;;;;;2.20;100.00;95423.28;5012093;28;24499;-74
2021/11/21 10:12:15;;;;;;;7.60;6.87;;;;;;;2.24;100.00;95424.00;5012303;28;24503;-74
2021/11/21 10:15:02;;;;;;;7.30;6.60;;;;;;;2.68;100.00;95417.25;5012113;28;24435;-74
2021/11/21 10:17:31;;;;;;;9.40;7.80;;;;;;;2.67;100.00;95413.88;5011960;28;24474;-74
2021/11/21 10:20:10;;;;;;;7.70;6.90;;;;;;;2.75;100.00;95408.47;5012025;28;24531;-74
2021/11/21 10:22:55;;;;;;;7.95;7.03;;;;;;;2.72;100.00;95405.19;5011684;28;25012;-74
2021/11/21 10:25:46;;;;;;;7.72;6.95;;;;;;;2.72;100.00;95405.19;5011749;28;24934;-74
2021/11/21 10:28:18;;;;;;;9.25;7.80;;;;;;;2.77;100.00;95401.56;5004723;28;24444;-74
2021/11/21 10:31:14;;;;;;;9.88;7.80;;;;;;;2.69;100.00;95392.53;5008813;28;24437;-74
2021/11/21 10:33:44;;;;;;;8.43;7.63;;;;;;;2.69;100.00;95392.53;5011685;28;24444;-74
2021/11/21 10:36:15;;;;;;;13.93;10.38;;;;;;;2.53;100.00;95387.16;5011294;28;24970;-74
2021/11/21 10:38:45;;;;;;;9.95;7.72;;;;;;;2.53;100.00;95388.00;5011758;28;24443;-74
2021/11/21 10:41:17;;;;;;;13.30;8.27;;;;;;;2.51;100.00;95378.69;5011638;28;24515;-74
2021/11/21 10:43:50;;;;;;;8.63;7.82;;;;;;;2.49;100.00;95376.22;5011725;28;24455;-74
2021/11/21 10:46:25;;;;;;;14.13;9.10;;;;;;;2.29;100.00;95376.94;5010932;28;24443;-74
2021/11/21 10:48:52;;;;;;;10.30;8.18;;;;;;;2.21;100.00;95371.28;5010780;28;24420;-74
2021/11/21 10:51:21;;;;;;;9.13;8.18;;;;;;;2.29;100.00;95374.38;5011378;28;24432;-74
2021/11/21 10:53:48;;;;;;;9.57;8.63;;;;;;;2.29;100.00;95369.28;5011081;28;24429;-74
2021/11/21 10:56:14;;;;;;;11.15;9.20;;;;;;;2.28;100.00;95370.16;5011125;28;24439;-74
2021/11/21 10:58:47;;;;;;;12.88;11.48;;;;;;;2.39;100.00;95367.22;5011348;28;24452;-74
2021/11/21 11:01:25;;;;;;;18.15;15.02;;;;;;;2.33;100.00;95357.22;5011474;28;24459;-74
2021/11/21 11:04:08;;;;;;;10.05;8.80;;;;;;;2.22;100.00;95367.00;5011386;28;24478;-74
2021/11/21 11:06:36;;;;;;;10.97;9.20;;;;;;;2.23;100.00;95366.13;5009284;28;24648;-75
2021/11/21 11:09:17;;;;;;;9.18;8.27;;;;;;;2.25;100.00;95356.66;5011478;28;24424;-75
2021/11/21 11:11:45;;;;;;;10.90;8.13;;;;;;;2.31;100.00;95356.47;5011224;28;24429;-75
2021/11/21 11:14:18;;;;;;;8.90;8.10;;;;;;;2.48;100.00;95350.69;5010982;28;24424;-78
2021/11/21 11:16:48;;;;;;;9.27;7.90;;;;;;;2.58;100.00;95352.03;5005026;28;24441;-75
2021/11/21 11:19:16;;;;;;;9.00;7.55;;;;;;;2.46;100.00;95349.94;5011024;28;24458;-75
2021/11/21 11:21:47;;;;;;;9.98;7.95;;;;;;;2.51;100.00;95340.38;4995587;28;24440;-75
2021/11/21 11:24:14;;;;;;;8.60;7.80;;;;;;;2.48;100.00;95346.41;5003952;28;24437;-75
2021/11/21 11:26:40;;;;;;;11.35;8.13;;;;;;;2.38;100.00;95352.78;5010422;28;24655;-75
2021/11/21 11:29:16;;;;;;;9.55;8.25;;;;;;;2.29;100.00;95348.00;5010572;28;24439;-75